createdAt,value
2023-06-13T00:00:24.959Z,80.40
2023-06-13T00:02:52.812Z,80.50
2023-06-13T00:05:22.249Z,80.60
2023-06-13T00:07:50.758Z,80.60
2023-06-13T00:10:18.772Z,80.90
2023-06-13T00:12:50.308Z,81.00
2023-06-13T00:15:17.726Z,81.30
2023-06-13T00:17:46.723Z,81.00
2023-06-13T00:20:14.237Z,81.20
2023-06-13T00:22:42.884Z,81.20
2023-06-13T00:25:09.925Z,81.60
2023-06-13T00:27:36.932Z,81.60
2023-06-13T00:30:06.331Z,81.60
2023-06-13T00:32:34.440Z,81.70
2023-06-13T00:35:01.462Z,82.00
2023-06-13T00:41:32.403Z,82.30
2023-06-13T00:44:01.452Z,82.70
2023-06-13T00:46:35.552Z,82.70
2023-06-13T00:49:05.167Z,82.90
2023-06-13T00:51:34.314Z,82.90
2023-06-13T00:54:02.724Z,83.10
2023-06-13T00:56:31.165Z,83.10
2023-06-13T00:59:01.020Z,83.30
2023-06-13T01:01:29.000Z,83.50
2023-06-13T01:03:56.905Z,83.70
2023-06-13T01:06:29.424Z,84.60
2023-06-13T01:08:59.631Z,83.90
2023-06-13T01:11:42.394Z,83.70
2023-06-13T01:14:25.935Z,83.90
2023-06-13T01:16:58.467Z,84.30
2023-06-13T01:19:42.544Z,85.20
2023-06-13T01:22:20.460Z,85.00
2023-06-13T01:25:10.752Z,85.00
2023-06-13T01:27:40.963Z,85.00
2023-06-13T01:30:09.317Z,85.40
2023-06-13T01:32:38.060Z,85.80
2023-06-13T01:35:06.035Z,86.00
2023-06-13T01:37:33.587Z,86.10
2023-06-13T01:40:05.037Z,86.20
2023-06-13T01:42:35.041Z,86.40
2023-06-13T01:45:04.214Z,86.80
2023-06-13T01:47:47.876Z,86.80
2023-06-13T01:50:32.033Z,87.00
2023-06-13T01:53:04.057Z,87.00
2023-06-13T01:55:43.654Z,87.00
2023-06-13T01:58:46.072Z,86.80
2023-06-13T02:01:15.014Z,87.20
2023-06-13T02:03:42.338Z,87.30
2023-06-13T02:06:09.325Z,87.40
2023-06-13T02:08:36.795Z,87.30
2023-06-13T02:11:03.824Z,87.20
2023-06-13T02:13:32.211Z,87.60
2023-06-13T02:15:59.058Z,87.60
2023-06-13T02:18:26.327Z,87.80
2023-06-13T02:20:54.042Z,88.20
2023-06-13T02:23:27.130Z,88.10
2023-06-13T02:25:54.300Z,88.00
2023-06-13T02:28:21.233Z,88.30
2023-06-13T02:30:49.255Z,88.50
2023-06-13T02:33:16.391Z,88.70
2023-06-13T02:35:47.070Z,88.80
2023-06-13T02:38:14.479Z,88.90
2023-06-13T02:40:41.436Z,89.10
2023-06-13T02:43:10.532Z,89.10
2023-06-13T02:45:37.515Z,89.50
2023-06-13T02:48:05.842Z,89.60
2023-06-13T02:50:32.827Z,89.70
2023-06-13T02:53:00.959Z,89.90
2023-06-13T02:55:29.890Z,90.00
2023-06-13T02:58:01.289Z,90.10
2023-06-13T03:00:28.239Z,90.20
2023-06-13T03:03:07.781Z,90.30
2023-06-13T03:05:37.976Z,90.40
2023-06-13T03:08:08.212Z,90.40
2023-06-13T03:10:36.500Z,90.50
2023-06-13T03:13:04.680Z,90.50
2023-06-13T03:15:32.690Z,90.50
2023-06-13T03:18:01.760Z,90.70
2023-06-13T03:20:31.699Z,90.70
2023-06-13T03:23:02.091Z,90.70
2023-06-13T03:25:29.231Z,90.80
2023-06-13T03:27:56.529Z,90.80
2023-06-13T03:30:23.654Z,90.80
2023-06-13T03:32:56.086Z,90.90
2023-06-13T03:35:25.384Z,90.90
2023-06-13T03:37:52.489Z,91.00
2023-06-13T03:40:19.479Z,91.00
2023-06-13T03:42:47.428Z,91.00
2023-06-13T03:45:16.715Z,91.00
2023-06-13T03:47:44.364Z,91.00
2023-06-13T03:50:11.759Z,90.90
2023-06-13T03:52:39.739Z,91.00
2023-06-13T03:55:09.560Z,91.00
2023-06-13T03:57:37.796Z,90.90
2023-06-13T04:00:09.159Z,90.80
2023-06-13T04:02:42.614Z,90.80
2023-06-13T04:05:13.727Z,90.80
2023-06-13T04:07:43.902Z,90.90
2023-06-13T04:10:11.975Z,90.90
2023-06-13T04:12:39.872Z,90.80
2023-06-13T04:15:07.975Z,90.80
2023-06-13T04:17:34.885Z,90.80
2023-06-13T04:20:02.683Z,90.90
2023-06-13T04:22:29.570Z,90.80
2023-06-13T04:24:56.487Z,90.50
2023-06-13T04:27:29.752Z,90.30
2023-06-13T04:29:57.650Z,90.50
2023-06-13T04:32:29.692Z,90.50
2023-06-13T04:34:59.470Z,90.20
2023-06-13T04:37:31.662Z,90.20
2023-06-13T04:39:59.146Z,90.50
2023-06-13T04:42:28.289Z,90.00
2023-06-13T04:44:59.713Z,89.70
2023-06-13T04:47:38.185Z,89.40
2023-06-13T04:50:15.039Z,89.00
2023-06-13T04:52:42.829Z,89.00
2023-06-13T04:55:10.576Z,88.70
2023-06-13T04:57:37.673Z,88.50
2023-06-13T05:00:08.978Z,88.30
2023-06-13T05:02:36.081Z,88.50
2023-06-13T05:05:06.034Z,87.60
2023-06-13T05:07:33.447Z,87.20
2023-06-13T05:10:00.316Z,86.80
2023-06-13T05:12:27.576Z,86.80
2023-06-13T05:14:55.682Z,86.70
2023-06-13T05:17:22.975Z,86.60
2023-06-13T05:19:50.040Z,86.60
2023-06-13T05:22:17.351Z,86.90
2023-06-13T05:24:44.359Z,86.70
2023-06-13T05:27:12.324Z,86.40
2023-06-13T05:29:39.358Z,86.00
2023-06-13T05:32:07.065Z,85.80
2023-06-13T05:34:34.596Z,85.90
2023-06-13T05:37:01.972Z,85.70
2023-06-13T05:39:29.073Z,86.30
2023-06-13T05:41:56.105Z,86.70
2023-06-13T05:44:25.392Z,86.10
2023-06-13T05:46:54.091Z,85.80
2023-06-13T05:49:21.415Z,86.20
2023-06-13T05:51:48.480Z,85.70
2023-06-13T05:54:15.877Z,85.90
2023-06-13T05:56:42.794Z,85.90
2023-06-13T05:59:09.679Z,85.30
2023-06-13T06:01:41.764Z,86.40
2023-06-13T06:04:09.254Z,85.40
2023-06-13T06:06:37.541Z,85.10
2023-06-13T06:09:05.342Z,85.60
2023-06-13T06:11:32.924Z,84.60
2023-06-13T06:14:00.162Z,85.00
2023-06-13T06:16:27.264Z,85.20
2023-06-13T06:18:55.717Z,84.00
2023-06-13T06:21:23.169Z,83.70
2023-06-13T06:23:50.099Z,83.50
2023-06-13T06:26:17.151Z,83.50
2023-06-13T06:28:44.019Z,84.00
2023-06-13T06:31:11.237Z,83.30
2023-06-13T06:33:38.493Z,83.10
2023-06-13T06:36:05.913Z,83.10
2023-06-13T06:38:32.981Z,82.60
2023-06-13T06:41:00.147Z,82.10
2023-06-13T06:43:27.204Z,81.90
2023-06-13T06:45:56.345Z,81.70
2023-06-13T06:48:23.351Z,81.10
2023-06-13T06:50:50.471Z,82.00
2023-06-13T06:53:18.028Z,81.20
2023-06-13T06:55:45.106Z,80.20
2023-06-13T06:58:12.291Z,79.90
2023-06-13T07:00:39.298Z,79.60
2023-06-13T07:03:09.180Z,79.70
2023-06-13T07:05:36.478Z,79.70
2023-06-13T07:08:03.563Z,79.50
2023-06-13T07:10:30.654Z,79.00
2023-06-13T07:12:57.738Z,78.80
2023-06-13T07:15:24.822Z,78.60
2023-06-13T07:17:53.193Z,78.40
2023-06-13T07:20:21.655Z,78.40
2023-06-13T07:22:48.526Z,78.40
2023-06-13T07:25:16.185Z,78.50
2023-06-13T07:27:43.670Z,77.60
2023-06-13T07:30:11.356Z,77.10
2023-06-13T07:32:39.446Z,77.60
2023-06-13T07:35:07.485Z,78.00
2023-06-13T07:37:35.237Z,76.30
2023-06-13T07:40:04.969Z,76.60
2023-06-13T07:42:32.160Z,75.90
2023-06-13T07:44:59.161Z,76.40
2023-06-13T07:47:26.288Z,76.50
2023-06-13T07:49:53.443Z,77.00
2023-06-13T07:52:21.164Z,77.20
2023-06-13T07:54:48.452Z,77.20
2023-06-13T07:57:33.866Z,77.40
2023-06-13T08:00:07.840Z,77.00
2023-06-13T08:02:39.792Z,75.70
2023-06-13T08:05:07.922Z,76.20
2023-06-13T08:07:35.063Z,75.80
2023-06-13T08:10:02.354Z,75.30
2023-06-13T08:12:29.391Z,75.10
2023-06-13T08:14:56.302Z,74.90
2023-06-13T08:17:25.776Z,75.60
2023-06-13T08:19:53.246Z,75.30
2023-06-13T08:22:20.400Z,75.00
2023-06-13T08:24:47.673Z,72.90
2023-06-13T08:27:16.367Z,73.00
2023-06-13T08:29:44.193Z,73.90
2023-06-13T08:32:11.367Z,73.50
2023-06-13T08:34:39.012Z,73.80
2023-06-13T08:37:07.825Z,73.70
2023-06-13T08:39:40.494Z,73.80
2023-06-13T08:42:10.011Z,74.40
2023-06-13T08:44:37.824Z,74.60
2023-06-13T08:47:05.137Z,75.20
2023-06-13T08:49:32.993Z,74.20
2023-06-13T08:52:01.039Z,73.30
2023-06-13T08:54:31.531Z,73.60
2023-06-13T08:57:01.003Z,73.50
2023-06-13T08:59:28.252Z,73.70
2023-06-13T09:01:56.776Z,72.70
2023-06-13T09:04:29.016Z,73.70
2023-06-13T09:06:58.733Z,72.70
2023-06-13T09:09:26.330Z,72.70
2023-06-13T09:11:53.866Z,71.80
2023-06-13T09:14:21.985Z,71.80
2023-06-13T09:16:53.746Z,71.60
2023-06-13T09:19:21.099Z,71.30
2023-06-13T09:21:48.759Z,70.70
2023-06-13T09:24:16.459Z,70.20
2023-06-13T09:26:44.480Z,69.80
2023-06-13T09:29:26.532Z,69.80
2023-06-13T09:32:01.539Z,69.40
2023-06-13T09:34:32.338Z,69.70
2023-06-13T09:37:00.100Z,70.20
2023-06-13T09:39:29.425Z,69.00
2023-06-13T09:41:57.863Z,67.50
2023-06-13T09:44:25.746Z,67.80
2023-06-13T09:46:55.867Z,68.10
2023-06-13T09:49:23.154Z,69.00
2023-06-13T09:51:53.762Z,69.20
2023-06-13T09:54:21.526Z,69.30
2023-06-13T09:56:56.358Z,68.20
2023-06-13T09:59:23.816Z,67.60
2023-06-13T10:01:51.113Z,68.80
2023-06-13T10:04:19.528Z,69.30
2023-06-13T10:06:47.015Z,68.40
2023-06-13T10:09:14.109Z,68.50
2023-06-13T10:11:46.283Z,69.40
2023-06-13T10:14:23.737Z,69.30
2023-06-13T10:17:07.624Z,68.70
2023-06-13T10:19:41.400Z,68.50
2023-06-13T10:22:10.460Z,68.50
2023-06-13T10:24:39.240Z,68.80
2023-06-13T10:27:09.248Z,69.50
2023-06-13T10:29:39.231Z,69.60
2023-06-13T10:32:40.173Z,68.00
2023-06-13T10:35:32.442Z,67.40
2023-06-13T10:38:27.940Z,68.30
2023-06-13T10:41:11.167Z,68.10
2023-06-13T10:43:41.106Z,67.10
2023-06-13T10:46:09.457Z,64.20
2023-06-13T10:48:51.526Z,66.40
2023-06-13T10:51:28.993Z,67.10
2023-06-13T10:54:05.099Z,64.10
2023-06-13T10:56:33.422Z,63.10
2023-06-13T10:59:15.467Z,64.20
2023-06-13T11:01:46.087Z,65.50
2023-06-13T11:04:21.664Z,64.50
2023-06-13T11:06:52.960Z,64.20
2023-06-13T11:09:19.980Z,63.60
2023-06-13T11:11:52.860Z,62.90
2023-06-13T11:14:38.895Z,64.00
2023-06-13T11:17:06.780Z,64.00
2023-06-13T11:19:35.499Z,64.00
2023-06-13T11:22:05.087Z,62.30
2023-06-13T11:24:36.031Z,62.70
2023-06-13T11:27:09.023Z,62.90
2023-06-13T11:29:38.787Z,62.30
2023-06-13T11:32:09.425Z,61.80
2023-06-13T11:34:51.876Z,62.00
2023-06-13T11:37:26.639Z,62.50
2023-06-13T11:42:30.793Z,62.30
2023-06-13T11:44:58.553Z,61.80
2023-06-13T11:47:25.726Z,63.10
2023-06-13T11:49:58.390Z,63.50
2023-06-13T11:52:25.409Z,63.80
2023-06-13T11:54:55.464Z,63.00
2023-06-13T11:57:22.675Z,63.20
2023-06-13T12:00:00.750Z,63.30
2023-06-13T12:02:30.236Z,63.00
2023-06-13T12:04:57.366Z,63.50
2023-06-13T12:07:24.462Z,63.20
2023-06-13T12:09:53.482Z,63.60
2023-06-13T12:12:20.425Z,63.60
2023-06-13T12:14:57.454Z,62.70
2023-06-13T12:17:30.315Z,62.60
2023-06-13T12:20:08.760Z,62.40
2023-06-13T12:22:35.853Z,61.70
2023-06-13T12:25:03.193Z,62.30
2023-06-13T12:27:30.302Z,63.00
2023-06-13T12:29:58.478Z,62.60
2023-06-13T12:32:27.006Z,62.90
2023-06-13T12:34:57.376Z,61.90
2023-06-13T12:37:26.932Z,62.10
2023-06-13T12:40:13.913Z,61.60
2023-06-13T12:42:44.116Z,61.70
2023-06-13T12:45:11.773Z,61.60
2023-06-13T12:47:38.888Z,61.60
2023-06-13T12:50:11.201Z,61.50
2023-06-13T12:52:41.387Z,61.70
2023-06-13T12:55:08.195Z,61.70
2023-06-13T12:57:38.563Z,61.20
2023-06-13T13:00:12.069Z,61.00
2023-06-13T13:02:39.190Z,61.30
2023-06-13T13:05:08.180Z,60.00
2023-06-13T13:07:35.627Z,59.40
2023-06-13T13:10:02.666Z,58.70
2023-06-13T13:12:30.911Z,59.20
2023-06-13T13:14:59.960Z,59.80
2023-06-13T13:17:28.633Z,60.70
2023-06-13T13:19:55.842Z,61.00
2023-06-13T13:22:23.003Z,60.00
2023-06-13T13:24:50.498Z,60.20
2023-06-13T13:27:17.588Z,58.60
2023-06-13T13:29:44.766Z,57.20
2023-06-13T13:32:11.833Z,57.70
2023-06-13T13:34:38.874Z,55.80
2023-06-13T13:37:06.168Z,54.70
2023-06-13T13:39:33.130Z,54.30
2023-06-13T13:42:02.597Z,55.20
2023-06-13T13:44:32.461Z,54.00
2023-06-13T13:46:59.975Z,54.40
2023-06-13T13:49:29.154Z,52.90
2023-06-13T13:51:56.396Z,53.40
2023-06-13T13:54:23.601Z,54.40
2023-06-13T13:56:50.514Z,53.90
2023-06-13T13:59:17.560Z,52.60
2023-06-13T14:01:45.027Z,52.90
2023-06-13T14:04:15.499Z,52.10
2023-06-13T14:06:43.088Z,51.80
2023-06-13T14:09:11.256Z,52.00
2023-06-13T14:11:38.328Z,51.80
2023-06-13T14:14:05.183Z,51.60
2023-06-13T14:16:33.647Z,49.90
2023-06-13T14:19:00.692Z,50.80
2023-06-13T14:21:27.627Z,50.40
2023-06-13T14:23:55.164Z,50.70
2023-06-13T14:26:26.575Z,49.80
2023-06-13T14:28:54.341Z,50.00
2023-06-13T14:31:21.487Z,50.80
2023-06-13T14:33:49.690Z,50.40
2023-06-13T14:36:19.738Z,50.30
2023-06-13T14:38:47.019Z,50.70
2023-06-13T14:41:14.277Z,50.50
2023-06-13T14:43:41.540Z,51.00
2023-06-13T14:46:12.805Z,50.00
2023-06-13T14:48:41.079Z,49.50
2023-06-13T14:51:09.036Z,49.10
2023-06-13T14:53:37.236Z,49.20
2023-06-13T14:56:08.206Z,49.20
2023-06-13T14:58:35.602Z,49.00
2023-06-13T15:01:02.496Z,49.50
2023-06-13T15:03:31.483Z,49.50
2023-06-13T15:06:00.575Z,48.50
2023-06-13T15:08:27.382Z,48.70
2023-06-13T15:10:54.216Z,48.20
2023-06-13T15:13:24.344Z,48.80
2023-06-13T15:15:54.088Z,47.90
2023-06-13T15:18:21.942Z,47.50
2023-06-13T15:20:50.055Z,47.10
2023-06-13T15:23:17.682Z,48.50
2023-06-13T15:25:45.985Z,46.90
2023-06-13T15:28:13.085Z,47.80
2023-06-13T15:30:40.154Z,46.10
2023-06-13T15:33:07.186Z,46.80
2023-06-13T15:35:34.463Z,47.60
2023-06-13T15:38:01.642Z,46.20
2023-06-13T15:40:28.727Z,46.20
2023-06-13T15:42:57.214Z,47.00
2023-06-13T15:45:36.644Z,48.30
2023-06-13T15:48:06.532Z,47.90
2023-06-13T15:50:34.256Z,46.20
2023-06-13T15:53:01.491Z,48.30
2023-06-13T15:55:43.311Z,46.70
2023-06-13T15:58:12.225Z,47.90
2023-06-13T16:00:40.615Z,46.20
2023-06-13T16:03:08.572Z,45.60
2023-06-13T16:05:39.568Z,46.10
2023-06-13T16:08:09.816Z,46.00
2023-06-13T16:10:36.957Z,45.90
2023-06-13T16:13:04.145Z,47.00
2023-06-13T16:15:33.760Z,47.20
2023-06-13T16:18:01.200Z,47.00
2023-06-13T16:20:28.366Z,47.80
2023-06-13T16:22:55.410Z,48.70
2023-06-13T16:25:23.982Z,49.80
2023-06-13T16:27:51.235Z,50.70
2023-06-13T16:30:18.318Z,51.60
2023-06-13T16:32:56.869Z,52.40
2023-06-13T16:35:30.466Z,53.40
2023-06-13T16:38:00.937Z,54.00
2023-06-13T16:40:48.315Z,54.20
2023-06-13T16:43:21.538Z,54.60
2023-06-13T16:45:51.160Z,54.30
2023-06-13T16:48:19.697Z,54.60
2023-06-13T16:50:46.687Z,54.40
2023-06-13T16:53:14.049Z,54.60
2023-06-13T16:55:41.198Z,54.70
2023-06-13T16:58:08.245Z,55.00
2023-06-13T17:00:36.267Z,54.90
2023-06-13T17:03:04.391Z,54.80
2023-06-13T17:05:40.084Z,55.00
2023-06-13T17:11:06.181Z,55.10
2023-06-13T17:13:33.378Z,55.30
2023-06-13T17:16:01.218Z,55.20
2023-06-13T17:18:28.180Z,55.40
2023-06-13T17:20:58.836Z,55.20
2023-06-13T17:23:29.097Z,55.50
2023-06-13T17:25:56.184Z,55.90
2023-06-13T17:28:23.839Z,55.30
2023-06-13T17:30:50.930Z,55.60
2023-06-13T17:33:17.947Z,55.30
2023-06-13T17:35:44.972Z,55.40
2023-06-13T17:38:11.801Z,55.60
2023-06-13T17:40:48.737Z,55.50
2023-06-13T17:43:15.785Z,55.70
2023-06-13T17:45:43.462Z,55.70
2023-06-13T17:48:10.556Z,55.40
2023-06-13T17:50:40.173Z,55.90
2023-06-13T17:53:10.881Z,57.00
2023-06-13T17:55:38.096Z,56.10
2023-06-13T17:58:17.029Z,56.10
2023-06-13T18:00:44.306Z,56.50
2023-06-13T18:03:11.709Z,56.50
2023-06-13T18:05:38.831Z,56.70
2023-06-13T18:08:06.227Z,56.40
2023-06-13T18:10:35.890Z,56.50
2023-06-13T18:13:03.307Z,56.60
2023-06-13T18:15:30.566Z,56.60
2023-06-13T18:17:57.945Z,56.50
2023-06-13T18:20:25.070Z,56.70
2023-06-13T18:22:52.099Z,57.00
2023-06-13T18:25:19.166Z,57.10
2023-06-13T18:27:50.100Z,57.50
2023-06-13T18:30:17.839Z,57.50
2023-06-13T18:32:45.010Z,57.90
2023-06-13T18:35:13.211Z,57.60
2023-06-13T18:37:43.286Z,58.00
2023-06-13T18:40:11.072Z,58.00
2023-06-13T18:42:41.889Z,58.00
2023-06-13T18:45:10.233Z,58.20
2023-06-13T18:47:43.824Z,58.70
2023-06-13T18:50:11.717Z,57.80
2023-06-13T18:52:39.094Z,57.90
2023-06-13T18:55:07.554Z,58.30
2023-06-13T18:57:34.625Z,58.80
2023-06-13T19:00:02.410Z,59.30
2023-06-13T19:02:30.390Z,58.70
2023-06-13T19:04:58.015Z,58.90
2023-06-13T19:07:27.942Z,58.80
2023-06-13T19:09:55.385Z,59.70
2023-06-13T19:12:23.385Z,59.20
2023-06-13T19:14:50.640Z,59.10
2023-06-13T19:17:18.612Z,59.80
2023-06-13T19:19:46.225Z,59.30
2023-06-13T19:22:13.513Z,59.50
2023-06-13T19:24:40.777Z,59.80
2023-06-13T19:27:08.293Z,59.80
2023-06-13T19:29:37.518Z,60.00
2023-06-13T19:32:07.125Z,60.10
2023-06-13T19:34:34.635Z,60.70
2023-06-13T19:37:04.667Z,60.60
2023-06-13T19:39:33.569Z,61.00
2023-06-13T19:42:00.702Z,61.40
2023-06-13T19:44:27.660Z,61.30
2023-06-13T19:46:54.777Z,61.90
2023-06-13T19:49:22.006Z,61.80
2023-06-13T19:51:49.080Z,62.20
2023-06-13T19:54:16.306Z,62.30
2023-06-13T19:56:43.288Z,63.40
2023-06-13T19:59:11.179Z,62.60
2023-06-13T20:01:40.456Z,62.90
2023-06-13T20:04:08.354Z,63.20
2023-06-13T20:06:42.680Z,73.10
2023-06-13T20:09:10.480Z,67.90
2023-06-13T20:11:37.487Z,66.70
2023-06-13T20:14:04.620Z,66.40
2023-06-13T20:16:35.071Z,67.20
2023-06-13T20:19:02.300Z,67.80
2023-06-13T20:21:30.505Z,65.90
2023-06-13T20:23:59.861Z,66.60
2023-06-13T20:26:27.284Z,65.70
2023-06-13T20:28:54.273Z,66.40
2023-06-13T20:31:24.347Z,66.70
2023-06-13T20:33:51.174Z,68.70
2023-06-13T20:36:18.352Z,68.80
2023-06-13T20:38:48.661Z,68.20
2023-06-13T20:41:24.636Z,67.20
2023-06-13T20:43:51.886Z,67.10
2023-06-13T20:46:19.302Z,67.20
2023-06-13T20:48:46.769Z,67.40
2023-06-13T20:53:45.585Z,67.50
2023-06-13T20:56:25.047Z,67.70
2023-06-13T20:58:52.405Z,68.10
2023-06-13T21:01:56.042Z,68.60
2023-06-13T21:04:23.778Z,68.70
2023-06-13T21:06:51.057Z,68.90
2023-06-13T21:09:23.552Z,69.20
2023-06-13T21:11:50.958Z,69.60
2023-06-13T21:14:17.917Z,70.00
2023-06-13T21:16:47.555Z,70.20
2023-06-13T21:19:25.742Z,70.60
2023-06-13T21:21:53.702Z,71.20
2023-06-13T21:24:21.145Z,71.60
2023-06-13T21:26:48.386Z,71.60
2023-06-13T21:29:15.501Z,72.10
2023-06-13T21:31:42.539Z,72.90
2023-06-13T21:34:09.639Z,73.30
2023-06-13T21:36:37.110Z,74.80
2023-06-13T21:39:04.660Z,76.10
2023-06-13T21:41:31.812Z,77.00
2023-06-13T21:47:01.582Z,79.20
2023-06-13T21:49:28.483Z,80.50
2023-06-13T21:51:55.456Z,81.30
2023-06-13T21:54:22.341Z,82.50
2023-06-13T21:56:50.226Z,83.20
2023-06-13T21:59:17.433Z,84.10
2023-06-13T22:01:45.829Z,85.20
2023-06-13T22:04:12.737Z,85.80
2023-06-13T22:06:40.491Z,86.20
2023-06-13T22:09:09.932Z,86.70
2023-06-13T22:11:39.773Z,87.40
2023-06-13T22:14:07.690Z,87.80
2023-06-13T22:16:38.518Z,88.30
2023-06-13T22:19:05.899Z,88.70
2023-06-13T22:21:33.500Z,89.30
2023-06-13T22:24:01.582Z,89.70
2023-06-13T22:26:28.621Z,89.90
2023-06-13T22:28:57.633Z,90.10
2023-06-13T22:31:24.649Z,90.20
2023-06-13T22:33:51.884Z,90.20
2023-06-13T22:36:18.733Z,90.20
2023-06-13T22:38:45.798Z,90.20
2023-06-13T22:41:13.527Z,90.20
2023-06-13T22:43:40.480Z,90.40
2023-06-13T22:46:07.467Z,90.20
2023-06-13T22:48:35.748Z,90.10
2023-06-13T22:51:05.829Z,90.00
2023-06-13T22:53:35.487Z,90.00
2023-06-13T22:56:02.521Z,90.00
2023-06-13T22:58:30.497Z,89.90
2023-06-13T23:00:57.793Z,89.90
2023-06-13T23:03:25.919Z,89.80
2023-06-13T23:05:53.623Z,89.30
2023-06-13T23:08:21.483Z,88.70
2023-06-13T23:10:55.806Z,88.70
2023-06-13T23:13:22.740Z,88.50
2023-06-13T23:15:50.177Z,88.20
2023-06-13T23:18:17.485Z,87.90
2023-06-13T23:20:44.770Z,87.70
2023-06-13T23:23:11.661Z,88.00
2023-06-13T23:25:38.557Z,88.50
2023-06-13T23:28:06.894Z,89.00
2023-06-13T23:30:33.831Z,89.80
2023-06-13T23:33:04.146Z,90.40
2023-06-13T23:35:31.370Z,90.50
2023-06-13T23:37:59.088Z,91.00
2023-06-13T23:40:27.416Z,91.10
2023-06-13T23:42:55.024Z,91.20
2023-06-13T23:45:21.837Z,91.20
2023-06-13T23:47:48.890Z,91.10
2023-06-13T23:50:15.985Z,91.20
2023-06-13T23:52:42.983Z,91.30
2023-06-13T23:55:10.031Z,91.20
2023-06-13T23:57:36.950Z,91.50
